createdAt,value
2023-01-27T00:00:55.472Z,7.10
2023-01-27T00:03:22.535Z,6.00
2023-01-27T00:05:49.657Z,6.53
2023-01-27T00:08:16.836Z,6.37
2023-01-27T00:10:43.779Z,6.50
2023-01-27T00:13:29.019Z,6.00
2023-01-27T00:15:56.111Z,6.50
2023-01-27T00:18:23.819Z,6.47
2023-01-27T00:21:09.633Z,6.03
2023-01-27T00:23:55.583Z,6.33
2023-01-27T00:26:22.496Z,6.23
2023-01-27T00:28:49.462Z,6.07
2023-01-27T00:31:36.216Z,6.87
2023-01-27T00:34:10.645Z,6.10
2023-01-27T00:36:40.351Z,6.10
2023-01-27T00:39:09.532Z,6.00
2023-01-27T00:41:36.500Z,6.47
2023-01-27T00:44:05.596Z,6.27
2023-01-27T00:46:33.175Z,6.47
2023-01-27T00:49:00.212Z,5.77
2023-01-27T00:51:27.066Z,6.57
2023-01-27T00:53:53.997Z,6.07
2023-01-27T00:56:20.830Z,6.47
2023-01-27T00:58:47.899Z,6.63
2023-01-27T01:01:16.776Z,6.73
2023-01-27T01:03:44.229Z,6.87
2023-01-27T01:06:15.117Z,7.00
2023-01-27T01:08:42.907Z,6.53
2023-01-27T01:11:13.885Z,7.33
2023-01-27T01:13:42.526Z,6.67
2023-01-27T01:16:17.129Z,7.17
2023-01-27T01:18:44.535Z,6.80
2023-01-27T01:21:12.566Z,7.80
2023-01-27T01:23:44.918Z,7.50
2023-01-27T01:26:15.328Z,7.77
2023-01-27T01:28:44.099Z,7.40
2023-01-27T01:31:15.862Z,7.80
2023-01-27T01:33:42.759Z,7.80
2023-01-27T01:36:13.239Z,8.23
2023-01-27T01:38:40.434Z,8.03
2023-01-27T01:41:10.313Z,8.40
2023-01-27T01:43:37.108Z,9.47
2023-01-27T01:46:04.971Z,8.03
2023-01-27T01:48:48.765Z,8.60
2023-01-27T01:51:31.297Z,8.27
2023-01-27T01:54:05.822Z,8.90
2023-01-27T01:56:39.235Z,9.40
2023-01-27T01:59:22.604Z,8.97
2023-01-27T02:01:53.134Z,10.20
2023-01-27T02:04:25.318Z,9.87
2023-01-27T02:07:11.251Z,10.50
2023-01-27T02:09:39.385Z,9.57
2023-01-27T02:12:06.507Z,10.53
2023-01-27T02:14:33.534Z,9.23
2023-01-27T02:17:01.005Z,11.10
2023-01-27T02:20:04.575Z,10.67
2023-01-27T02:23:01.732Z,11.13
2023-01-27T02:26:30.993Z,10.47
2023-01-27T02:29:08.776Z,9.07
2023-01-27T02:31:35.892Z,9.97
2023-01-27T02:34:11.462Z,9.63
2023-01-27T02:36:48.461Z,9.80
2023-01-27T02:39:17.285Z,10.63
2023-01-27T02:41:55.986Z,9.70
2023-01-27T02:44:23.062Z,11.07
2023-01-27T02:46:50.193Z,9.47
2023-01-27T02:49:17.069Z,10.67
2023-01-27T02:51:44.022Z,10.77
2023-01-27T02:54:10.828Z,10.13
2023-01-27T02:56:37.682Z,11.37
2023-01-27T02:59:04.469Z,10.57
2023-01-27T03:01:34.431Z,10.40
2023-01-27T03:04:02.112Z,11.37
2023-01-27T03:06:28.980Z,11.17
2023-01-27T03:08:55.843Z,11.10
2023-01-27T03:11:41.045Z,11.47
2023-01-27T03:14:09.428Z,10.47
2023-01-27T03:16:54.731Z,10.70
2023-01-27T03:19:21.607Z,11.53
2023-01-27T03:21:52.804Z,11.80
2023-01-27T03:24:20.932Z,11.53
2023-01-27T03:26:47.976Z,12.13
2023-01-27T03:29:33.807Z,11.30
2023-01-27T03:32:00.602Z,11.43
2023-01-27T03:34:27.405Z,10.10
2023-01-27T03:37:12.537Z,11.50
2023-01-27T03:39:57.906Z,10.40
2023-01-27T03:42:43.099Z,10.10
2023-01-27T03:45:29.075Z,11.80
2023-01-27T03:47:55.841Z,11.33
2023-01-27T03:50:31.187Z,11.77
2023-01-27T03:53:03.673Z,11.93
2023-01-27T03:55:32.241Z,10.33
2023-01-27T03:58:14.157Z,11.97
2023-01-27T04:00:41.341Z,12.20
2023-01-27T04:03:26.563Z,11.80
2023-01-27T04:06:11.802Z,11.57
2023-01-27T04:08:38.657Z,11.37
2023-01-27T04:11:24.367Z,12.57
2023-01-27T04:13:51.268Z,11.87
2023-01-27T04:16:19.765Z,12.40
2023-01-27T04:18:49.163Z,12.50
2023-01-27T04:21:16.536Z,12.77
2023-01-27T04:23:43.372Z,12.70
2023-01-27T04:26:10.194Z,14.00
2023-01-27T04:28:44.146Z,13.13
2023-01-27T04:31:11.958Z,13.77
2023-01-27T04:33:38.920Z,12.50
2023-01-27T04:36:06.250Z,13.10
2023-01-27T04:38:33.277Z,12.10
2023-01-27T04:41:00.273Z,12.73
2023-01-27T04:43:27.140Z,12.83
2023-01-27T04:45:54.061Z,12.97
2023-01-27T04:48:21.775Z,13.70
2023-01-27T04:50:48.741Z,15.23
2023-01-27T04:53:15.542Z,13.40
2023-01-27T04:55:48.185Z,13.57
2023-01-27T04:58:17.814Z,13.53
2023-01-27T05:00:45.482Z,13.97
2023-01-27T05:03:12.509Z,12.53
2023-01-27T05:05:39.547Z,14.77
2023-01-27T05:08:09.432Z,13.37
2023-01-27T05:10:37.054Z,13.33
2023-01-27T05:13:03.959Z,12.67
2023-01-27T05:15:31.441Z,13.07
2023-01-27T05:17:58.364Z,12.70
2023-01-27T05:20:25.222Z,13.03
2023-01-27T05:22:52.098Z,12.93
2023-01-27T05:25:19.018Z,12.90
2023-01-27T05:27:46.036Z,13.00
2023-01-27T05:30:13.445Z,14.13
2023-01-27T05:32:40.321Z,12.77
2023-01-27T05:35:07.774Z,11.17
2023-01-27T05:37:34.639Z,11.60
2023-01-27T05:40:01.467Z,11.80
2023-01-27T05:42:28.318Z,12.93
2023-01-27T05:44:55.215Z,12.20
2023-01-27T05:47:22.018Z,10.87
2023-01-27T05:49:48.863Z,11.60
2023-01-27T05:52:15.705Z,12.60
2023-01-27T05:54:42.527Z,11.13
2023-01-27T05:57:09.331Z,11.63
2023-01-27T05:59:36.353Z,11.73
2023-01-27T06:02:03.184Z,11.07
2023-01-27T06:04:30.035Z,11.20
2023-01-27T06:06:56.838Z,11.33
2023-01-27T06:09:23.666Z,11.10
2023-01-27T06:11:50.451Z,10.27
2023-01-27T06:14:17.359Z,10.13
2023-01-27T06:16:47.147Z,11.53
2023-01-27T06:19:14.143Z,9.47
2023-01-27T06:21:40.958Z,11.50
2023-01-27T06:24:07.918Z,10.57
2023-01-27T06:26:34.817Z,9.70
2023-01-27T06:29:01.775Z,11.57
2023-01-27T06:31:28.802Z,11.20
2023-01-27T06:33:55.964Z,11.00
2023-01-27T06:36:23.071Z,11.17
2023-01-27T06:38:50.512Z,11.33
2023-01-27T06:41:18.349Z,10.87
2023-01-27T06:43:45.180Z,11.97
2023-01-27T06:46:12.289Z,10.87
2023-01-27T06:48:39.581Z,10.60
2023-01-27T06:51:06.597Z,11.07
2023-01-27T06:53:34.797Z,11.80
2023-01-27T06:56:01.803Z,11.17
2023-01-27T06:58:29.456Z,11.33
2023-01-27T07:00:57.061Z,12.20
2023-01-27T07:03:24.649Z,12.97
2023-01-27T07:05:53.063Z,12.43
2023-01-27T07:08:19.912Z,10.83
2023-01-27T07:10:46.786Z,11.50
2023-01-27T07:13:14.625Z,11.33
2023-01-27T07:15:42.121Z,12.27
2023-01-27T07:18:12.278Z,12.27
2023-01-27T07:20:40.039Z,11.77
2023-01-27T07:23:07.337Z,11.53
2023-01-27T07:25:35.422Z,14.83
2023-01-27T07:28:03.778Z,13.77
2023-01-27T07:30:31.077Z,15.43
2023-01-27T07:33:10.210Z,14.17
2023-01-27T07:35:39.027Z,13.27
2023-01-27T07:38:07.225Z,13.33
2023-01-27T07:40:34.554Z,13.57
2023-01-27T07:43:02.707Z,13.87
2023-01-27T07:45:30.051Z,13.67
2023-01-27T07:48:08.155Z,17.10
2023-01-27T07:50:41.784Z,13.73
2023-01-27T07:53:09.767Z,22.33
2023-01-27T07:55:36.620Z,18.63
2023-01-27T07:58:03.501Z,22.80
2023-01-27T08:00:30.520Z,18.67
2023-01-27T08:02:59.209Z,19.40
2023-01-27T08:05:27.812Z,18.00
2023-01-27T08:07:58.571Z,22.80
2023-01-27T08:10:25.802Z,16.30
2023-01-27T08:12:52.788Z,16.53
2023-01-27T08:15:19.622Z,15.73
2023-01-27T08:17:57.002Z,16.40
2023-01-27T08:20:26.333Z,14.47
2023-01-27T08:22:53.718Z,16.73
2023-01-27T08:25:20.699Z,15.03
2023-01-27T08:27:54.827Z,16.80
2023-01-27T08:30:22.158Z,15.47
2023-01-27T08:32:49.315Z,15.80
2023-01-27T08:35:16.465Z,14.30
2023-01-27T08:37:43.301Z,14.10
2023-01-27T08:40:11.575Z,15.33
2023-01-27T08:42:38.522Z,15.27
2023-01-27T08:45:06.089Z,17.43
2023-01-27T08:47:32.962Z,17.33
2023-01-27T08:49:59.812Z,17.23
2023-01-27T08:52:27.696Z,16.60
2023-01-27T08:54:54.595Z,15.27
2023-01-27T08:57:21.424Z,14.47
2023-01-27T08:59:48.213Z,15.90
2023-01-27T09:02:15.100Z,17.23
2023-01-27T09:04:44.365Z,13.87
2023-01-27T09:07:11.676Z,14.33
2023-01-27T09:09:38.532Z,14.30
2023-01-27T09:12:05.599Z,21.50
2023-01-27T09:14:32.590Z,18.43
2023-01-27T09:16:59.404Z,20.63
2023-01-27T09:19:26.327Z,19.73
2023-01-27T09:21:53.250Z,19.50
2023-01-27T09:24:20.539Z,28.40
2023-01-27T09:26:47.462Z,34.27
2023-01-27T09:29:14.374Z,26.13
2023-01-27T09:31:41.379Z,26.23
2023-01-27T09:34:08.231Z,21.20
2023-01-27T09:36:43.419Z,24.00
2023-01-27T09:39:11.520Z,20.53
2023-01-27T09:41:53.339Z,20.80
2023-01-27T09:44:46.042Z,20.73
2023-01-27T09:47:40.849Z,19.97
2023-01-27T09:50:15.605Z,21.20
2023-01-27T09:53:15.252Z,18.63
2023-01-27T09:55:56.809Z,17.33
2023-01-27T09:59:17.602Z,15.43
2023-01-27T10:02:36.980Z,15.30
2023-01-27T10:06:10.386Z,15.13
2023-01-27T10:09:13.251Z,16.50
2023-01-27T10:11:52.628Z,15.37
2023-01-27T10:14:43.554Z,15.23
2023-01-27T10:17:51.765Z,22.57
2023-01-27T10:20:36.825Z,14.73
2023-01-27T10:23:37.375Z,14.50
2023-01-27T10:26:30.674Z,13.47
2023-01-27T10:29:16.451Z,13.93
2023-01-27T10:31:57.509Z,13.90
2023-01-27T10:34:35.992Z,14.37
2023-01-27T10:37:40.863Z,20.30
2023-01-27T10:40:21.661Z,15.40
2023-01-27T10:43:17.168Z,20.90
2023-01-27T10:46:35.631Z,12.73
2023-01-27T10:49:24.277Z,15.10
2023-01-27T10:51:58.336Z,21.30
2023-01-27T10:54:34.318Z,18.03
2023-01-27T10:57:16.472Z,21.03
2023-01-27T11:00:27.547Z,18.50
2023-01-27T11:03:33.728Z,19.13
2023-01-27T11:06:06.854Z,17.27
2023-01-27T11:08:37.807Z,14.87
2023-01-27T11:11:27.521Z,14.03
2023-01-27T11:14:26.649Z,13.90
2023-01-27T11:17:10.862Z,11.50
2023-01-27T11:19:57.329Z,11.37
2023-01-27T11:22:33.416Z,11.53
2023-01-27T11:25:26.896Z,12.23
2023-01-27T11:28:13.216Z,12.70
2023-01-27T11:31:06.014Z,13.97
2023-01-27T11:34:03.758Z,11.73
2023-01-27T11:36:30.810Z,11.07
2023-01-27T11:38:58.987Z,11.33
2023-01-27T11:41:26.272Z,12.47
2023-01-27T11:43:53.159Z,11.90
2023-01-27T11:46:24.373Z,11.93
2023-01-27T11:48:57.338Z,14.33
2023-01-27T11:51:29.048Z,12.83
2023-01-27T11:54:06.684Z,12.77
2023-01-27T11:56:36.708Z,11.47
2023-01-27T11:59:18.448Z,12.87
2023-01-27T12:01:56.855Z,13.70
2023-01-27T12:04:51.780Z,13.37
2023-01-27T12:07:51.730Z,12.63
2023-01-27T12:10:31.425Z,12.87
2023-01-27T12:13:09.666Z,12.43
2023-01-27T12:15:38.065Z,12.30
2023-01-27T12:18:14.690Z,11.63
2023-01-27T12:21:02.954Z,13.27
2023-01-27T12:23:56.724Z,13.47
2023-01-27T12:26:37.672Z,12.30
2023-01-27T12:29:13.802Z,13.13
2023-01-27T12:31:50.636Z,14.47
2023-01-27T12:34:36.290Z,20.87
2023-01-27T12:37:06.638Z,19.60
2023-01-27T12:39:45.511Z,15.17
2023-01-27T12:42:37.438Z,15.57
2023-01-27T12:45:26.502Z,14.07
2023-01-27T12:48:10.285Z,13.17
2023-01-27T12:50:50.467Z,12.47
2023-01-27T12:53:27.765Z,14.10
2023-01-27T12:56:20.712Z,15.60
2023-01-27T12:59:00.556Z,16.40
2023-01-27T13:01:34.732Z,14.43
2023-01-27T13:04:13.996Z,14.60
2023-01-27T13:07:14.951Z,16.70
2023-01-27T13:10:02.400Z,12.40
2023-01-27T13:12:46.673Z,19.87
2023-01-27T13:15:19.672Z,17.10
2023-01-27T13:17:54.982Z,14.60
2023-01-27T13:20:41.107Z,14.07
2023-01-27T13:23:19.092Z,12.13
2023-01-27T13:26:22.560Z,12.67
2023-01-27T13:28:58.762Z,13.53
2023-01-27T13:32:03.188Z,14.57
2023-01-27T13:34:51.615Z,13.53
2023-01-27T13:37:40.957Z,11.87
2023-01-27T13:40:35.230Z,12.70
2023-01-27T13:43:27.268Z,13.87
2023-01-27T13:46:17.399Z,12.63
2023-01-27T13:48:54.508Z,11.83
2023-01-27T13:51:25.694Z,12.00
2023-01-27T13:54:02.770Z,13.57
2023-01-27T13:57:02.470Z,11.80
2023-01-27T14:00:04.404Z,11.70
2023-01-27T14:02:48.500Z,10.70
2023-01-27T14:05:27.741Z,10.37
2023-01-27T14:08:31.355Z,12.43
2023-01-27T14:11:13.006Z,12.20
2023-01-27T14:14:01.525Z,12.50
2023-01-27T14:16:47.086Z,13.33
2023-01-27T14:19:32.045Z,11.50
2023-01-27T14:22:36.559Z,11.53
2023-01-27T14:25:57.882Z,11.63
2023-01-27T14:29:08.283Z,11.57
2023-01-27T14:31:55.159Z,11.90
2023-01-27T14:34:44.522Z,11.13
2023-01-27T14:37:28.352Z,11.60
2023-01-27T14:40:13.191Z,10.83
2023-01-27T14:43:23.243Z,11.03
2023-01-27T14:45:58.504Z,10.77
2023-01-27T14:48:51.877Z,12.00
2023-01-27T14:51:42.384Z,15.27
2023-01-27T14:54:37.214Z,11.10
2023-01-27T14:57:18.861Z,13.07
2023-01-27T15:00:14.207Z,11.00
2023-01-27T15:03:27.839Z,11.40
2023-01-27T15:06:23.815Z,13.03
2023-01-27T15:09:06.073Z,12.20
2023-01-27T15:12:11.975Z,10.50
2023-01-27T15:15:05.934Z,15.67
2023-01-27T15:18:09.301Z,12.93
2023-01-27T15:20:46.628Z,18.97
2023-01-27T15:23:29.678Z,18.43
2023-01-27T15:26:00.451Z,13.63
2023-01-27T15:28:32.851Z,25.40
2023-01-27T15:31:15.319Z,14.13
2023-01-27T15:33:49.113Z,13.50
2023-01-27T15:36:27.919Z,12.10
2023-01-27T15:39:09.881Z,11.90
2023-01-27T15:42:03.325Z,10.50
2023-01-27T15:44:33.011Z,11.57
2023-01-27T15:47:22.168Z,10.50
2023-01-27T15:50:14.762Z,11.87
2023-01-27T15:52:47.056Z,10.93
2023-01-27T15:55:29.667Z,11.30
2023-01-27T15:58:24.569Z,10.47
2023-01-27T16:00:54.780Z,10.37
2023-01-27T16:03:35.003Z,11.40
2023-01-27T16:06:09.690Z,10.93
2023-01-27T16:08:48.933Z,10.23
2023-01-27T16:11:30.774Z,12.30
2023-01-27T16:14:12.854Z,11.57
2023-01-27T16:16:42.000Z,12.73
2023-01-27T16:19:16.486Z,11.60
2023-01-27T16:21:57.592Z,13.33
2023-01-27T16:24:42.313Z,11.93
2023-01-27T16:27:40.154Z,13.23
2023-01-27T16:30:31.433Z,10.93
2023-01-27T16:33:26.858Z,10.90
2023-01-27T16:36:08.044Z,11.03
2023-01-27T16:38:43.985Z,10.50
2023-01-27T16:41:36.169Z,10.37
2023-01-27T16:44:18.973Z,12.93
2023-01-27T16:46:49.339Z,16.33
2023-01-27T16:49:24.485Z,15.73
2023-01-27T16:51:56.509Z,14.27
2023-01-27T16:54:31.560Z,13.17
2023-01-27T16:56:58.797Z,12.10
2023-01-27T16:59:28.339Z,14.50
2023-01-27T17:02:00.571Z,14.03
2023-01-27T17:04:29.763Z,14.07
2023-01-27T17:07:10.917Z,11.67
2023-01-27T17:09:50.201Z,14.00
2023-01-27T17:12:47.070Z,13.80
2023-01-27T17:15:21.970Z,13.60
2023-01-27T17:17:51.980Z,12.47
2023-01-27T17:20:32.915Z,13.63
2023-01-27T17:23:02.797Z,15.17
2023-01-27T17:25:35.060Z,13.20
2023-01-27T17:28:09.588Z,14.77
2023-01-27T17:30:42.239Z,15.57
2023-01-27T17:33:18.723Z,17.07
2023-01-27T17:35:53.175Z,13.77
2023-01-27T17:38:24.266Z,13.53
2023-01-27T17:40:54.272Z,15.43
2023-01-27T17:43:30.828Z,20.37
2023-01-27T17:46:24.980Z,20.47
2023-01-27T17:49:08.137Z,17.63
2023-01-27T17:51:49.186Z,16.83
2023-01-27T17:54:41.494Z,18.37
2023-01-27T17:57:32.484Z,16.87
2023-01-27T18:00:33.553Z,16.93
2023-01-27T18:03:06.879Z,16.83
2023-01-27T18:05:34.179Z,17.23
2023-01-27T18:08:03.745Z,17.20
2023-01-27T18:10:33.295Z,17.40
2023-01-27T18:13:20.393Z,16.53
2023-01-27T18:16:02.257Z,20.20
2023-01-27T18:18:35.089Z,19.20
2023-01-27T18:21:26.178Z,15.60
2023-01-27T18:23:59.042Z,16.73
2023-01-27T18:26:37.774Z,15.50
2023-01-27T18:29:13.627Z,15.23
2023-01-27T18:31:54.878Z,14.27
2023-01-27T18:34:32.474Z,14.13
2023-01-27T18:37:26.227Z,20.23
2023-01-27T18:39:54.440Z,18.13
2023-01-27T18:42:23.447Z,17.47
2023-01-27T18:44:52.007Z,18.03
2023-01-27T18:47:45.252Z,17.27
2023-01-27T18:50:14.654Z,15.73
2023-01-27T18:52:42.499Z,14.70
2023-01-27T18:55:26.738Z,15.00
2023-01-27T18:58:00.612Z,16.10
2023-01-27T19:00:52.733Z,15.40
2023-01-27T19:03:26.597Z,14.97
2023-01-27T19:05:53.924Z,14.13
2023-01-27T19:08:23.516Z,18.80
2023-01-27T19:10:51.725Z,15.73
2023-01-27T19:13:18.993Z,15.20
2023-01-27T19:15:51.272Z,16.00
2023-01-27T19:18:26.280Z,16.60
2023-01-27T19:20:53.730Z,15.63
2023-01-27T19:23:21.474Z,14.27
2023-01-27T19:25:53.277Z,16.63
2023-01-27T19:28:31.213Z,15.97
2023-01-27T19:30:59.147Z,14.63
2023-01-27T19:33:28.001Z,14.47
2023-01-27T19:36:15.792Z,14.10
2023-01-27T19:38:42.616Z,15.87
2023-01-27T19:41:10.728Z,16.07
2023-01-27T19:43:37.751Z,15.47
2023-01-27T19:46:15.360Z,14.37
2023-01-27T19:48:42.480Z,14.73
2023-01-27T19:51:11.493Z,16.67
2023-01-27T19:53:38.959Z,15.80
2023-01-27T19:56:19.538Z,16.30
2023-01-27T19:58:52.624Z,15.33
2023-01-27T20:01:21.627Z,13.60
2023-01-27T20:03:49.499Z,15.77
2023-01-27T20:06:22.037Z,14.53
2023-01-27T20:08:54.374Z,16.27
2023-01-27T20:11:31.588Z,14.23
2023-01-27T20:13:59.445Z,17.73
2023-01-27T20:16:26.861Z,17.63
2023-01-27T20:18:54.121Z,15.03
2023-01-27T20:21:21.091Z,13.47
2023-01-27T20:23:48.202Z,14.20
2023-01-27T20:26:22.082Z,14.03
2023-01-27T20:28:49.613Z,14.00
2023-01-27T20:31:22.421Z,14.77
2023-01-27T20:33:50.279Z,14.67
2023-01-27T20:36:23.730Z,14.67
2023-01-27T20:38:51.745Z,13.50
2023-01-27T20:41:24.074Z,13.03
2023-01-27T20:44:00.516Z,12.50
2023-01-27T20:46:28.810Z,12.30
2023-01-27T20:48:56.361Z,12.63
2023-01-27T20:51:23.190Z,12.40
2023-01-27T20:53:50.013Z,12.90
2023-01-27T20:56:20.040Z,13.10
2023-01-27T20:58:47.556Z,11.97
2023-01-27T21:01:18.680Z,11.60
2023-01-27T21:03:46.234Z,12.57
2023-01-27T21:06:15.755Z,11.77
2023-01-27T21:08:43.656Z,11.40
2023-01-27T21:11:12.875Z,11.90
2023-01-27T21:13:39.917Z,12.83
2023-01-27T21:16:07.340Z,13.00
2023-01-27T21:18:35.999Z,12.87
2023-01-27T21:21:04.150Z,13.17
2023-01-27T21:23:33.448Z,12.77
2023-01-27T21:26:06.079Z,12.53
2023-01-27T21:28:33.999Z,12.60
2023-01-27T21:31:14.585Z,12.97
2023-01-27T21:33:41.774Z,11.37
2023-01-27T21:36:10.695Z,12.30
2023-01-27T21:38:38.911Z,13.37
2023-01-27T21:41:37.662Z,12.57
2023-01-27T21:44:24.130Z,12.80
2023-01-27T21:46:51.084Z,13.07
2023-01-27T21:49:17.994Z,12.50
2023-01-27T21:51:44.828Z,13.03
2023-01-27T21:54:11.633Z,12.77
2023-01-27T21:56:38.524Z,12.97
2023-01-27T21:59:05.341Z,13.47
2023-01-27T22:01:32.246Z,13.10
2023-01-27T22:03:59.072Z,12.70
2023-01-27T22:06:25.935Z,12.73
2023-01-27T22:08:52.787Z,13.07
2023-01-27T22:11:19.894Z,13.87
2023-01-27T22:13:47.120Z,12.67
2023-01-27T22:16:15.976Z,13.30
2023-01-27T22:18:43.351Z,13.33
2023-01-27T22:21:10.449Z,13.30
2023-01-27T22:23:37.397Z,13.50
2023-01-27T22:26:07.741Z,14.00
2023-01-27T22:28:34.623Z,13.67
2023-01-27T22:31:02.078Z,13.87
2023-01-27T22:33:28.994Z,13.83
2023-01-27T22:36:01.103Z,14.20
2023-01-27T22:38:28.173Z,13.87
2023-01-27T22:40:58.899Z,13.70
2023-01-27T22:43:25.908Z,13.47
2023-01-27T22:45:52.811Z,13.10
2023-01-27T22:48:19.674Z,14.33
2023-01-27T22:50:46.593Z,13.47
2023-01-27T22:53:13.517Z,12.80
2023-01-27T22:55:40.381Z,14.33
2023-01-27T22:58:08.325Z,13.80
2023-01-27T23:00:35.239Z,14.13
2023-01-27T23:03:02.241Z,14.33
2023-01-27T23:05:29.120Z,15.27
2023-01-27T23:07:55.919Z,13.57
2023-01-27T23:10:23.704Z,14.40
2023-01-27T23:12:50.537Z,14.20
2023-01-27T23:15:17.635Z,13.63
2023-01-27T23:17:44.623Z,13.77
2023-01-27T23:20:12.237Z,14.13
2023-01-27T23:22:39.045Z,13.80
2023-01-27T23:25:07.129Z,13.77
2023-01-27T23:27:34.429Z,13.57
2023-01-27T23:30:01.701Z,13.60
2023-01-27T23:32:28.511Z,13.73
2023-01-27T23:34:55.351Z,14.43
2023-01-27T23:37:22.188Z,14.77
2023-01-27T23:39:49.705Z,15.00
2023-01-27T23:42:17.711Z,14.50
2023-01-27T23:44:44.977Z,14.33
2023-01-27T23:47:13.314Z,14.43
2023-01-27T23:49:40.406Z,14.73
2023-01-27T23:52:07.512Z,13.80
2023-01-27T23:54:34.587Z,15.00
2023-01-27T23:57:05.175Z,14.70
2023-01-27T23:59:31.981Z,13.90
